createdAt,value
2019-01-29T00:00:30.306Z,43.50
2019-01-29T00:02:57.345Z,43.00
2019-01-29T00:05:23.439Z,45.33
2019-01-29T00:07:49.579Z,45.07
2019-01-29T00:10:15.515Z,43.30
2019-01-29T00:12:41.573Z,42.23
2019-01-29T00:15:09.299Z,42.63
2019-01-29T00:17:35.342Z,42.40
2019-01-29T00:20:01.577Z,40.90
2019-01-29T00:22:33.224Z,37.70
2019-01-29T00:24:55.653Z,42.13
2019-01-29T00:27:22.031Z,40.93
2019-01-29T00:29:49.653Z,38.87
2019-01-29T00:32:16.101Z,40.23
2019-01-29T00:34:43.628Z,38.27
2019-01-29T00:37:09.563Z,38.50
2019-01-29T00:39:35.492Z,38.13
2019-01-29T00:42:01.878Z,38.77
2019-01-29T00:44:27.824Z,38.33
2019-01-29T00:46:53.749Z,37.73
2019-01-29T00:49:19.720Z,37.50
2019-01-29T00:51:46.362Z,39.53
2019-01-29T00:54:12.295Z,38.57
2019-01-29T00:56:38.289Z,37.00
2019-01-29T00:59:04.232Z,37.70
2019-01-29T01:01:30.160Z,38.30
2019-01-29T01:03:56.115Z,40.30
2019-01-29T01:06:22.358Z,41.50
2019-01-29T01:08:48.415Z,40.37
2019-01-29T01:11:14.578Z,38.67
2019-01-29T01:13:41.226Z,38.93
2019-01-29T01:16:07.250Z,38.93
2019-01-29T01:18:33.270Z,34.80
2019-01-29T01:20:59.625Z,30.93
2019-01-29T01:23:26.249Z,34.03
2019-01-29T01:25:52.411Z,33.30
2019-01-29T01:28:18.347Z,31.43
2019-01-29T01:30:45.228Z,32.67
2019-01-29T01:33:11.197Z,31.90
2019-01-29T01:35:37.276Z,33.20
2019-01-29T01:38:03.222Z,32.27
2019-01-29T01:40:29.224Z,35.63
2019-01-29T01:42:55.274Z,33.67
2019-01-29T01:45:21.505Z,32.97
2019-01-29T01:47:49.773Z,33.27
2019-01-29T01:50:16.014Z,33.40
2019-01-29T01:52:43.257Z,35.17
2019-01-29T01:55:13.025Z,35.83
2019-01-29T01:57:39.967Z,36.17
2019-01-29T02:00:09.906Z,35.87
2019-01-29T02:02:36.198Z,36.40
2019-01-29T02:05:04.840Z,35.00
2019-01-29T02:07:31.796Z,35.67
2019-01-29T02:09:57.880Z,34.47
2019-01-29T02:12:25.558Z,27.00
2019-01-29T02:14:54.196Z,19.53
2019-01-29T02:17:20.166Z,19.27
2019-01-29T02:19:46.504Z,17.57
2019-01-29T02:22:12.542Z,17.03
2019-01-29T02:24:38.730Z,16.60
2019-01-29T02:27:04.780Z,16.47
2019-01-29T02:29:31.007Z,15.47
2019-01-29T02:31:57.916Z,15.07
2019-01-29T02:34:23.855Z,14.73
2019-01-29T02:36:50.493Z,15.10
2019-01-29T02:39:17.668Z,14.77
2019-01-29T02:41:43.795Z,14.70
2019-01-29T02:44:11.635Z,14.77
2019-01-29T02:46:37.632Z,15.10
2019-01-29T02:49:03.564Z,13.47
2019-01-29T02:51:29.494Z,14.00
2019-01-29T02:53:55.466Z,14.07
2019-01-29T02:56:23.505Z,13.73
2019-01-29T02:58:49.436Z,13.83
2019-01-29T03:01:16.429Z,11.80
2019-01-29T03:03:42.364Z,12.00
2019-01-29T03:06:09.207Z,11.97
2019-01-29T03:08:35.361Z,11.50
2019-01-29T03:11:01.452Z,10.93
2019-01-29T03:13:27.464Z,10.60
2019-01-29T03:15:53.437Z,10.60
2019-01-29T03:18:19.422Z,9.73
2019-01-29T03:20:45.409Z,10.97
2019-01-29T03:23:11.375Z,10.67
2019-01-29T03:25:38.403Z,10.23
2019-01-29T03:28:04.334Z,10.13
2019-01-29T03:30:30.931Z,10.00
2019-01-29T03:32:57.052Z,10.10
2019-01-29T03:35:22.985Z,10.13
2019-01-29T03:37:48.958Z,10.20
2019-01-29T03:40:20.708Z,10.53
2019-01-29T03:42:46.656Z,13.60
2019-01-29T03:45:14.517Z,15.40
2019-01-29T03:47:40.578Z,14.67
2019-01-29T03:50:11.290Z,14.87
2019-01-29T03:52:38.206Z,17.90
2019-01-29T03:55:06.042Z,20.70
2019-01-29T03:57:33.170Z,22.77
2019-01-29T03:59:59.227Z,21.20
2019-01-29T04:02:26.308Z,20.23
2019-01-29T04:04:52.242Z,19.97
2019-01-29T04:07:18.208Z,19.67
2019-01-29T04:09:44.438Z,19.40
2019-01-29T04:12:10.370Z,19.57
2019-01-29T04:14:36.377Z,20.10
2019-01-29T04:17:02.306Z,20.00
2019-01-29T04:19:30.115Z,20.23
2019-01-29T04:21:56.080Z,19.03
2019-01-29T04:24:22.809Z,22.60
2019-01-29T04:26:48.752Z,25.50
2019-01-29T04:29:14.813Z,31.43
2019-01-29T04:31:41.240Z,32.90
2019-01-29T04:34:07.257Z,32.30
2019-01-29T04:36:33.246Z,32.10
2019-01-29T04:38:59.509Z,30.93
2019-01-29T04:41:25.440Z,30.60
2019-01-29T04:43:51.539Z,30.20
2019-01-29T04:46:17.479Z,29.73
2019-01-29T04:48:43.415Z,20.30
2019-01-29T04:51:09.381Z,19.57
2019-01-29T04:53:35.332Z,19.87
2019-01-29T04:56:01.239Z,23.50
2019-01-29T04:58:27.239Z,33.17
2019-01-29T05:00:53.233Z,36.53
2019-01-29T05:03:19.198Z,46.47
2019-01-29T05:05:45.159Z,48.70
2019-01-29T05:08:11.107Z,44.80
2019-01-29T05:10:37.119Z,48.83
2019-01-29T05:13:03.587Z,37.60
2019-01-29T05:15:29.513Z,39.60
2019-01-29T05:17:55.452Z,34.17
2019-01-29T05:20:21.649Z,30.73
2019-01-29T05:22:48.157Z,28.07
2019-01-29T05:25:14.377Z,37.93
2019-01-29T05:27:40.483Z,35.00
2019-01-29T05:30:15.027Z,39.93
2019-01-29T05:32:40.972Z,34.10
2019-01-29T05:35:08.086Z,35.30
2019-01-29T05:37:34.020Z,35.97
2019-01-29T05:39:59.962Z,34.27
2019-01-29T05:42:25.968Z,34.27
2019-01-29T05:44:51.921Z,39.30
2019-01-29T05:47:17.858Z,28.97
2019-01-29T05:49:43.819Z,34.43
2019-01-29T05:52:09.745Z,29.70
2019-01-29T05:54:35.677Z,34.57
2019-01-29T05:57:01.656Z,55.20
2019-01-29T05:59:28.797Z,51.43
2019-01-29T06:01:54.712Z,41.43
2019-01-29T06:04:20.922Z,29.30
2019-01-29T06:06:46.936Z,24.40
2019-01-29T06:09:13.717Z,24.23
2019-01-29T06:11:41.275Z,28.57
2019-01-29T06:14:07.198Z,26.47
2019-01-29T06:16:33.123Z,31.50
2019-01-29T06:18:59.270Z,19.10
2019-01-29T06:21:25.337Z,20.13
2019-01-29T06:23:51.253Z,25.60
2019-01-29T06:26:17.248Z,24.73
2019-01-29T06:28:43.188Z,29.67
2019-01-29T06:31:09.120Z,31.17
2019-01-29T06:33:35.492Z,35.33
2019-01-29T06:36:01.486Z,49.07
2019-01-29T06:38:27.413Z,49.13
2019-01-29T06:40:54.253Z,67.47
2019-01-29T06:43:20.188Z,52.27
2019-01-29T06:45:46.140Z,64.53
2019-01-29T06:48:12.137Z,80.57
2019-01-29T06:50:38.950Z,54.00
2019-01-29T06:53:04.922Z,38.30
2019-01-29T06:55:30.990Z,36.47
2019-01-29T06:57:57.026Z,35.50
2019-01-29T07:00:28.466Z,33.60
2019-01-29T07:02:55.178Z,33.53
2019-01-29T07:05:21.103Z,33.97
2019-01-29T07:07:47.078Z,34.13
2019-01-29T07:10:19.663Z,61.00
2019-01-29T07:12:45.670Z,109.33
2019-01-29T07:15:41.903Z,35.90
2019-01-29T07:18:19.106Z,27.43
2019-01-29T07:20:45.318Z,23.27
2019-01-29T07:23:11.551Z,20.77
2019-01-29T07:25:37.549Z,22.10
2019-01-29T07:28:04.330Z,26.53
2019-01-29T07:30:30.264Z,28.53
2019-01-29T07:32:56.480Z,40.63
2019-01-29T07:35:22.468Z,34.73
2019-01-29T07:37:48.696Z,32.17
2019-01-29T07:40:14.750Z,24.60
2019-01-29T07:42:40.907Z,23.07
2019-01-29T07:45:12.124Z,21.67
2019-01-29T07:47:38.259Z,18.60
2019-01-29T07:50:07.555Z,19.10
2019-01-29T07:52:33.800Z,19.63
2019-01-29T07:55:00.234Z,18.17
2019-01-29T07:57:26.309Z,19.30
2019-01-29T07:59:52.242Z,18.93
2019-01-29T08:02:18.193Z,20.67
2019-01-29T08:04:44.348Z,22.33
2019-01-29T08:07:12.897Z,24.13
2019-01-29T08:09:38.828Z,31.70
2019-01-29T08:12:05.046Z,21.87
2019-01-29T08:14:31.575Z,21.00
2019-01-29T08:16:57.621Z,22.83
2019-01-29T08:19:24.902Z,21.50
2019-01-29T08:21:50.830Z,20.77
2019-01-29T08:24:16.774Z,21.10
2019-01-29T08:26:42.736Z,20.97
2019-01-29T08:29:08.870Z,19.57
2019-01-29T08:31:35.559Z,19.43
2019-01-29T08:34:01.684Z,19.83
2019-01-29T08:36:27.657Z,19.47
2019-01-29T08:38:53.685Z,33.10
2019-01-29T08:41:19.857Z,22.87
2019-01-29T08:43:46.095Z,20.47
2019-01-29T08:46:12.110Z,21.30
2019-01-29T08:48:38.128Z,29.87
2019-01-29T08:51:04.364Z,25.43
2019-01-29T08:53:30.306Z,23.63
2019-01-29T08:55:56.502Z,21.33
2019-01-29T08:58:27.075Z,20.90
2019-01-29T09:00:50.278Z,21.60
2019-01-29T09:03:16.585Z,30.10
2019-01-29T09:05:42.509Z,18.97
2019-01-29T09:08:08.642Z,19.00
2019-01-29T09:10:34.857Z,18.23
2019-01-29T09:13:00.812Z,18.13
2019-01-29T09:15:26.746Z,16.10
2019-01-29T09:17:52.807Z,20.53
2019-01-29T09:20:20.168Z,14.50
2019-01-29T09:22:46.403Z,16.03
2019-01-29T09:25:19.824Z,18.50
2019-01-29T09:27:41.720Z,13.53
2019-01-29T09:30:15.994Z,15.70
2019-01-29T09:32:42.237Z,18.03
2019-01-29T09:35:08.490Z,22.27
2019-01-29T09:37:35.006Z,17.97
2019-01-29T09:40:04.699Z,18.13
2019-01-29T09:42:30.672Z,17.40
2019-01-29T09:44:57.193Z,24.70
2019-01-29T09:47:23.971Z,24.73
2019-01-29T09:49:50.093Z,31.33
2019-01-29T09:52:16.370Z,24.23
2019-01-29T09:54:42.408Z,22.00
2019-01-29T09:57:08.351Z,17.63
2019-01-29T09:59:34.674Z,16.40
2019-01-29T10:02:00.857Z,17.00
2019-01-29T10:04:26.802Z,16.37
2019-01-29T10:06:52.912Z,17.43
2019-01-29T10:09:19.242Z,18.10
2019-01-29T10:11:45.366Z,18.60
2019-01-29T10:14:12.234Z,19.80
2019-01-29T10:16:38.172Z,19.33
2019-01-29T10:19:04.618Z,17.30
2019-01-29T10:21:30.823Z,19.23
2019-01-29T10:23:58.117Z,21.03
2019-01-29T10:26:24.044Z,23.03
2019-01-29T10:28:50.419Z,24.23
2019-01-29T10:31:16.554Z,26.13
2019-01-29T10:33:42.482Z,21.73
2019-01-29T10:36:08.897Z,23.23
2019-01-29T10:38:34.838Z,25.00
2019-01-29T10:41:00.903Z,24.83
2019-01-29T10:43:26.908Z,22.80
2019-01-29T10:45:52.956Z,18.07
2019-01-29T10:48:18.892Z,19.90
2019-01-29T10:50:46.281Z,17.90
2019-01-29T10:53:14.116Z,19.93
2019-01-29T10:55:47.111Z,18.70
2019-01-29T10:58:08.163Z,17.23
2019-01-29T11:00:37.751Z,18.47
2019-01-29T11:03:05.889Z,18.17
2019-01-29T11:05:32.463Z,19.80
2019-01-29T11:07:58.987Z,19.07
2019-01-29T11:10:25.025Z,16.27
2019-01-29T11:12:51.003Z,18.20
2019-01-29T11:15:23.060Z,18.77
2019-01-29T11:17:49.111Z,19.23
2019-01-29T11:20:17.387Z,22.03
2019-01-29T11:22:43.526Z,25.83
2019-01-29T11:25:13.162Z,31.23
2019-01-29T11:27:39.149Z,28.80
2019-01-29T11:30:08.891Z,29.30
2019-01-29T11:32:34.927Z,27.50
2019-01-29T11:35:02.010Z,19.93
2019-01-29T11:37:27.937Z,15.53
2019-01-29T11:39:53.990Z,21.80
2019-01-29T11:42:20.860Z,17.80
2019-01-29T11:44:48.585Z,14.33
2019-01-29T11:47:14.930Z,17.57
2019-01-29T11:49:41.653Z,21.17
2019-01-29T11:52:07.787Z,20.17
2019-01-29T11:54:34.029Z,20.07
2019-01-29T11:57:00.304Z,18.00
2019-01-29T11:59:26.265Z,18.77
2019-01-29T12:01:52.538Z,22.67
2019-01-29T12:04:18.655Z,16.23
2019-01-29T12:06:44.913Z,19.80
2019-01-29T12:09:11.406Z,18.47
2019-01-29T12:11:38.037Z,20.03
2019-01-29T12:14:04.122Z,15.60
2019-01-29T12:16:30.076Z,18.30
2019-01-29T12:18:56.146Z,19.03
2019-01-29T12:21:22.095Z,19.87
2019-01-29T12:23:48.353Z,20.53
2019-01-29T12:26:14.411Z,15.90
2019-01-29T12:28:40.317Z,19.67
2019-01-29T12:31:06.338Z,15.77
2019-01-29T12:33:32.650Z,13.73
2019-01-29T12:35:58.593Z,12.77
2019-01-29T12:38:24.540Z,12.40
2019-01-29T12:40:50.504Z,12.33
2019-01-29T12:43:20.283Z,14.37
2019-01-29T12:45:48.298Z,18.47
2019-01-29T12:48:14.414Z,30.90
2019-01-29T12:50:42.251Z,24.77
2019-01-29T12:53:10.202Z,13.50
2019-01-29T12:55:36.406Z,11.33
2019-01-29T12:58:02.670Z,20.37
2019-01-29T13:00:30.512Z,12.07
2019-01-29T13:02:56.536Z,10.97
2019-01-29T13:05:22.468Z,9.17
2019-01-29T13:07:48.413Z,10.23
2019-01-29T13:10:22.261Z,8.87
2019-01-29T13:12:48.878Z,11.40
2019-01-29T13:15:29.055Z,10.87
2019-01-29T13:17:57.111Z,8.90
2019-01-29T13:20:23.244Z,7.23
2019-01-29T13:22:49.528Z,8.83
2019-01-29T13:25:16.160Z,8.63
2019-01-29T13:27:42.125Z,16.73
2019-01-29T13:30:20.942Z,14.87
2019-01-29T13:32:47.876Z,17.87
2019-01-29T13:35:14.253Z,10.23
2019-01-29T13:37:43.168Z,14.63
2019-01-29T13:40:11.859Z,13.10
2019-01-29T13:42:38.375Z,27.60
2019-01-29T13:45:10.494Z,15.87
2019-01-29T13:47:36.443Z,10.63
2019-01-29T13:50:05.905Z,13.57
2019-01-29T13:52:35.060Z,14.67
2019-01-29T13:55:01.140Z,13.87
2019-01-29T13:57:27.945Z,18.50
2019-01-29T13:59:53.940Z,13.80
2019-01-29T14:02:20.079Z,15.00
2019-01-29T14:04:46.335Z,8.27
2019-01-29T14:07:12.333Z,24.53
2019-01-29T14:09:38.276Z,39.90
2019-01-29T14:12:04.333Z,13.87
2019-01-29T14:14:31.817Z,23.60
2019-01-29T14:16:58.072Z,24.40
2019-01-29T14:19:23.997Z,24.33
2019-01-29T14:21:50.202Z,18.10
2019-01-29T14:24:16.440Z,14.87
2019-01-29T14:26:47.564Z,13.43
2019-01-29T14:29:13.896Z,10.70
2019-01-29T14:31:40.126Z,11.20
2019-01-29T14:34:06.062Z,8.80
2019-01-29T14:36:32.054Z,10.97
2019-01-29T14:39:14.233Z,8.83
2019-01-29T14:41:40.234Z,10.30
2019-01-29T14:44:07.493Z,15.73
2019-01-29T14:46:34.468Z,11.97
2019-01-29T14:49:02.976Z,14.97
2019-01-29T14:51:29.938Z,14.73
2019-01-29T14:53:55.938Z,13.23
2019-01-29T14:56:23.367Z,12.53
2019-01-29T14:58:49.326Z,10.37
2019-01-29T15:01:15.811Z,7.33
2019-01-29T15:03:41.835Z,12.93
2019-01-29T15:06:07.979Z,9.40
2019-01-29T15:08:34.023Z,10.60
2019-01-29T15:10:59.990Z,7.80
2019-01-29T15:13:25.921Z,18.70
2019-01-29T15:15:53.754Z,20.67
2019-01-29T15:18:21.634Z,10.63
2019-01-29T15:20:47.571Z,21.13
2019-01-29T15:23:13.512Z,17.53
2019-01-29T15:25:39.523Z,16.80
2019-01-29T15:28:05.716Z,15.03
2019-01-29T15:30:32.308Z,14.07
2019-01-29T15:32:58.393Z,15.80
2019-01-29T15:35:24.427Z,12.50
2019-01-29T15:37:51.003Z,19.53
2019-01-29T15:40:21.499Z,13.93
2019-01-29T15:42:48.278Z,15.83
2019-01-29T15:45:18.909Z,31.87
2019-01-29T15:47:46.728Z,22.77
2019-01-29T15:50:21.111Z,16.87
2019-01-29T15:52:48.596Z,17.97
2019-01-29T15:55:17.059Z,15.70
2019-01-29T15:57:45.665Z,21.40
2019-01-29T16:00:15.349Z,17.00
2019-01-29T16:02:41.338Z,19.70
2019-01-29T16:05:11.085Z,10.50
2019-01-29T16:07:37.123Z,13.60
2019-01-29T16:10:07.030Z,17.40
2019-01-29T16:12:33.197Z,16.17
2019-01-29T16:14:59.145Z,23.13
2019-01-29T16:17:25.156Z,10.37
2019-01-29T16:19:51.102Z,13.60
2019-01-29T16:22:17.054Z,16.13
2019-01-29T16:24:43.068Z,17.23
2019-01-29T16:27:09.859Z,18.73
2019-01-29T16:29:38.649Z,10.63
2019-01-29T16:32:04.998Z,14.37
2019-01-29T16:34:32.891Z,19.23
2019-01-29T16:36:59.336Z,24.13
2019-01-29T16:39:25.424Z,17.37
2019-01-29T16:41:52.125Z,12.93
2019-01-29T16:44:18.059Z,179.90
2019-01-29T16:46:44.125Z,22.37
2019-01-29T16:49:10.597Z,20.27
2019-01-29T16:51:42.254Z,11.83
2019-01-29T16:54:04.883Z,16.73
2019-01-29T16:56:31.256Z,10.27
2019-01-29T16:58:57.337Z,9.00
2019-01-29T17:01:23.404Z,12.70
2019-01-29T17:03:49.349Z,16.90
2019-01-29T17:06:15.483Z,14.93
2019-01-29T17:08:41.525Z,17.77
2019-01-29T17:11:07.436Z,11.27
2019-01-29T17:13:33.377Z,12.53
2019-01-29T17:15:59.378Z,9.40
2019-01-29T17:18:25.325Z,7.13
2019-01-29T17:20:51.373Z,8.90
2019-01-29T17:23:17.509Z,10.13
2019-01-29T17:25:44.874Z,11.90
2019-01-29T17:28:11.012Z,20.60
2019-01-29T17:30:40.336Z,23.00
2019-01-29T17:33:07.013Z,29.17
2019-01-29T17:35:33.851Z,23.20
2019-01-29T17:38:01.788Z,28.20
2019-01-29T17:40:27.950Z,33.60
2019-01-29T17:42:54.302Z,28.40
2019-01-29T17:45:32.434Z,19.70
2019-01-29T17:47:58.850Z,11.43
2019-01-29T17:50:28.591Z,24.93
2019-01-29T17:52:54.641Z,11.60
2019-01-29T17:55:21.316Z,16.50
2019-01-29T17:57:50.705Z,8.30
2019-01-29T18:00:21.922Z,7.00
2019-01-29T18:02:47.980Z,7.47
2019-01-29T18:05:16.861Z,8.50
2019-01-29T18:07:42.836Z,8.63
2019-01-29T18:10:11.693Z,8.63
2019-01-29T18:12:37.909Z,19.33
2019-01-29T18:15:07.687Z,17.40
2019-01-29T18:17:33.716Z,10.97
2019-01-29T18:19:59.909Z,8.03
2019-01-29T18:22:25.987Z,8.03
2019-01-29T18:24:51.917Z,9.33
2019-01-29T18:27:20.140Z,6.93
2019-01-29T18:29:46.158Z,7.87
2019-01-29T18:32:12.113Z,10.87
2019-01-29T18:34:38.183Z,13.17
2019-01-29T18:37:04.311Z,11.57
2019-01-29T18:39:30.640Z,11.20
2019-01-29T18:41:56.747Z,12.00
2019-01-29T18:44:23.768Z,12.00
2019-01-29T18:46:49.996Z,14.20
2019-01-29T18:49:18.377Z,7.27
2019-01-29T18:51:45.963Z,8.67
2019-01-29T18:54:11.970Z,21.53
2019-01-29T18:56:40.831Z,15.13
2019-01-29T18:59:07.065Z,7.57
2019-01-29T19:01:33.432Z,7.90
2019-01-29T19:03:59.416Z,7.60
2019-01-29T19:06:25.708Z,9.37
2019-01-29T19:08:51.872Z,8.27
2019-01-29T19:11:18.526Z,10.37
2019-01-29T19:13:44.745Z,28.73
2019-01-29T19:16:10.686Z,16.03
2019-01-29T19:18:36.883Z,9.80
2019-01-29T19:21:02.937Z,7.93
2019-01-29T19:23:28.921Z,8.67
2019-01-29T19:25:54.855Z,11.00
2019-01-29T19:28:21.968Z,7.70
2019-01-29T19:30:48.255Z,13.70
2019-01-29T19:33:15.619Z,10.43
2019-01-29T19:35:43.765Z,56.23
2019-01-29T19:38:09.999Z,9.03
2019-01-29T19:40:36.127Z,8.10
2019-01-29T19:43:02.405Z,7.43
2019-01-29T19:45:31.152Z,9.73
2019-01-29T19:47:58.105Z,6.90
2019-01-29T19:50:26.920Z,7.23
2019-01-29T19:52:54.855Z,8.77
2019-01-29T19:55:21.597Z,7.07
2019-01-29T19:57:48.407Z,11.47
2019-01-29T20:00:18.385Z,15.93
2019-01-29T20:02:44.358Z,19.73
2019-01-29T20:05:10.367Z,14.90
2019-01-29T20:07:36.434Z,11.60
2019-01-29T20:10:06.665Z,12.50
2019-01-29T20:12:32.668Z,11.23
2019-01-29T20:14:58.616Z,13.93
2019-01-29T20:17:24.587Z,18.53
2019-01-29T20:19:50.548Z,19.70
2019-01-29T20:22:16.888Z,17.63
2019-01-29T20:24:42.862Z,8.93
2019-01-29T20:27:08.853Z,14.37
2019-01-29T20:29:36.065Z,6.57
2019-01-29T20:32:02.418Z,7.23
2019-01-29T20:34:28.451Z,10.43
2019-01-29T20:36:54.491Z,12.83
2019-01-29T20:39:22.897Z,14.47
2019-01-29T20:41:51.684Z,10.33
2019-01-29T20:44:17.269Z,10.50
2019-01-29T20:46:45.713Z,9.70
2019-01-29T20:49:11.850Z,24.13
2019-01-29T20:51:37.788Z,11.93
2019-01-29T20:54:04.109Z,11.57
2019-01-29T20:56:32.260Z,11.20
2019-01-29T20:58:59.270Z,12.23
2019-01-29T21:01:25.386Z,9.30
2019-01-29T21:03:54.698Z,15.63
2019-01-29T21:06:21.272Z,12.63
2019-01-29T21:08:47.433Z,11.10
2019-01-29T21:11:13.444Z,10.93
2019-01-29T21:13:40.008Z,10.77
2019-01-29T21:16:06.014Z,10.97
2019-01-29T21:18:32.345Z,11.67
2019-01-29T21:20:58.287Z,10.40
2019-01-29T21:23:24.590Z,7.27
2019-01-29T21:25:50.585Z,8.33
2019-01-29T21:28:16.663Z,6.57
2019-01-29T21:30:44.039Z,7.17
2019-01-29T21:33:11.015Z,7.70
2019-01-29T21:35:38.178Z,8.43
2019-01-29T21:38:04.155Z,8.80
2019-01-29T21:40:30.181Z,6.70
2019-01-29T21:42:57.511Z,7.10
2019-01-29T21:45:23.818Z,8.50
2019-01-29T21:47:51.509Z,7.50
2019-01-29T21:50:20.337Z,8.07
2019-01-29T21:52:46.295Z,8.53
2019-01-29T21:55:13.950Z,7.90
2019-01-29T21:57:39.979Z,6.90
2019-01-29T22:00:09.788Z,10.30
2019-01-29T22:02:35.910Z,9.80
2019-01-29T22:05:15.159Z,9.80
2019-01-29T22:07:45.728Z,10.07
2019-01-29T22:10:17.204Z,7.13
2019-01-29T22:12:47.766Z,7.30
2019-01-29T22:15:22.520Z,7.87
2019-01-29T22:17:53.928Z,9.27
2019-01-29T22:20:27.209Z,6.70
2019-01-29T22:22:57.864Z,7.97
2019-01-29T22:25:27.485Z,6.73
2019-01-29T22:27:57.115Z,6.27
2019-01-29T22:30:33.517Z,7.33
2019-01-29T22:33:03.976Z,7.40
2019-01-29T22:35:34.673Z,8.30
2019-01-29T22:38:06.377Z,7.30
2019-01-29T22:40:39.257Z,6.13
2019-01-29T22:43:29.452Z,9.27
2019-01-29T22:46:00.602Z,6.10
2019-01-29T22:48:31.792Z,5.97
2019-01-29T22:51:01.563Z,6.30
2019-01-29T22:53:31.184Z,6.30
2019-01-29T22:56:01.146Z,8.97
2019-01-29T22:58:31.126Z,7.37
2019-01-29T23:01:12.732Z,6.47
2019-01-29T23:03:44.508Z,7.47
2019-01-29T23:06:18.368Z,6.47
2019-01-29T23:08:48.466Z,7.20
2019-01-29T23:11:18.225Z,6.73
2019-01-29T23:13:47.848Z,6.30
2019-01-29T23:16:17.830Z,6.97
2019-01-29T23:18:47.509Z,6.80
2019-01-29T23:21:18.281Z,6.97
2019-01-29T23:23:48.573Z,7.13
2019-01-29T23:26:18.355Z,7.87
2019-01-29T23:28:49.604Z,7.67
2019-01-29T23:31:19.234Z,8.67
2019-01-29T23:33:49.981Z,8.33
2019-01-29T23:36:19.983Z,7.13
2019-01-29T23:38:50.016Z,7.93
2019-01-29T23:41:19.853Z,8.30
2019-01-29T23:43:49.601Z,8.83
2019-01-29T23:46:20.063Z,8.67
2019-01-29T23:48:49.717Z,6.90
2019-01-29T23:51:19.455Z,8.37
2019-01-29T23:53:49.433Z,8.10
2019-01-29T23:56:19.255Z,8.73
2019-01-29T23:58:50.149Z,8.20
